Pompton Lakes, NJ (07442)

5:57 PM EDT on October 01, 2014 (GMT -0400)
Greenwood Avenue | Change Station
CLOSE
Current Station
Personal Weather Station
Location: Haskell, NJ
Elevation: 250 ft
Nearby Weather Stations

Elev 250 ft 41.02 °N, 74.30 °W | Updated 9 seconds ago

Overcast
Overcast
64.5 °F
Feels Like 64.5 °F
N
1.0
Wind Variable Wind from NE
Gusts 3.0 mph

Today
High -- | Low -- °F
--% Chance of Precip.
Yesterday
High -- | Low -- °F
Precip. -- in
6:53 AM 6:39 PM
Waxing Crescent, 51% visible
Pressure 30.04 in
Visibility 10.0 miles
Clouds Few 2100 ft
Mostly Cloudy 2500 ft
Overcast 3700 ft
Dew Point 59 °F
Humidity 83%
Rainfall 0.00 in
Snow Depth Not available.
UV 0.0 out of 12
Pollen 2.30 out of 12
Air Quality Not available.
Flu Activity Not available.
SPECI KCDW 012114Z 05003KT 10SM FEW021 BKN025 OVC037 18/14 A3004 RMK AO2 T01830139

More Conditions Fewer Conditions

Pressure 30.04 in
Visibility 10.0 miles
Clouds Few 2100 ft
Mostly Cloudy 2500 ft
Overcast 3700 ft
Dew Point 59 °F
Humidity 83%
Rainfall 0.00 in
Snow Depth Not available.
UV 0.0 out of 12
Pollen 2.30 out of 12
Air Quality Not available.
Flu Activity Not available.
SPECI KCDW 012114Z 05003KT 10SM FEW021 BKN025 OVC037 18/14 A3004 RMK AO2 T01830139

More Conditions Fewer Conditions

10-Day Weather Forecast

Almanac

Astronomy

Oct. 01, 2014 Rise Set
Actual Time 6:53 AM EDT 6:39 PM EDT
Civil Twilight 6:26 AM EDT 7:06 PM EDT
Nautical Twilight 5:54 AM EDT 7:38 PM EDT
Astronomical Twilight 5:22 AM EDT 8:10 PM EDT
Moon 1:54 PM EDT No Moon Set
Length of Visible Light 12h 40m
Length of Day
11h 45m
Tomorrow will be 2m 42s shorter.
Waxing Crescent, 51% of the Moon is Illuminated
Today
Waxing Crescent
Oct 8
Full
Oct 15
Last Quarter
Oct 23
New
Oct 30
First Quarter

Today's Extremes

State Highs State Lows

Community

WunderPhotos

Upload Photos

1,758,057 photos uploaded!

WunderBlogs® & News

By Dr. Jeff Masters
Director of Meteorology, Weather Underground
By Kari Strenfel
Meteorologist, Weather Underground
By Christopher C. Burt
Weather Historian, Weather Underground
October 1, 2014
October 1, 2014
October 1, 2014

Nearby

Snow Depth

Station Depth Elevation
No new snow has been reported.

Earthquake Activity

City Distance Mag. Time & Date
No recent earthquake activity has been reported nearby.
Minimum magnitude displayed is 2.5.

Coastal Water Temperatures

Place Temperature
Sandy Hook, NJ 68.0 °F
The Battery, NY 69.1 °F
Bergen Point West Reach, NJ 69.1 °F

Nearby Weather Stations